CDT,Max TemperatureF,Mean TemperatureF,Min TemperatureF,Max Dew PointF,MeanDew PointF,Min DewpointF,Max Humidity, Mean Humidity, Min Humidity, Max Sea Level PressureIn, Mean Sea Level PressureIn, Min Sea Level PressureIn, Max VisibilityMiles, Mean VisibilityMiles, Min VisibilityMiles, Max Wind SpeedMPH, Mean Wind SpeedMPH, Max Gust SpeedMPH,PrecipitationIn, CloudCover, Events, WindDirDegrees
2013-10-1,89,82,77,79,76,73,97,85,65,29.90,29.86,29.81,10,9,7,16,9,,0.00,3,Rain,158
2013-10-2,91,82,75,76,74,73,97,79,57,29.92,29.88,29.84,10,10,8,14,8,,0.00,1,,155
2013-10-3,89,82,75,75,73,71,94,76,57,29.91,29.88,29.84,10,10,9,17,8,23,0.00,2,,145
2013-10-4,89,82,75,76,74,72,94,78,61,29.90,29.87,29.84,10,10,9,17,9,23,0.00,1,,146
2013-10-5,91,83,75,76,74,70,94,78,50,29.92,29.87,29.82,10,9,8,15,6,,0.00,1,,146
2013-10-6,78,73,63,75,65,54,97,79,59,30.11,30.02,29.91,10,8,7,24,11,31,0.00,5,,338
2013-10-7,82,70,59,59,52,42,86,57,25,30.16,30.10,30.06,10,10,9,17,9,20,0.00,0,,360
2013-10-8,82,70,59,63,58,52,93,67,45,30.08,30.03,29.97,10,10,8,10,4,18,0.00,0,,100
2013-10-9,87,75,64,67,64,60,90,70,41,30.01,29.97,29.93,10,10,9,17,6,23,0.00,1,,147
2013-10-10,87,76,66,74,69,64,90,75,53,29.99,29.94,29.89,10,10,9,20,8,21,0.00,3,,133
2013-10-11,89,83,78,77,76,74,96,81,66,29.90,29.86,29.81,10,9,6,18,13,25,0.02,4,Rain,149
2013-10-12,89,84,79,79,77,74,94,83,61,29.99,29.93,29.87,10,8,5,18,12,26,0.04,2,Rain,151
2013-10-13,89,84,78,77,75,72,94,78,59,30.07,30.01,29.96,10,9,7,18,11,24,0.00,1,,141
2013-10-14,88,80,75,74,72,70,94,77,61,30.04,29.98,29.91,10,10,7,17,9,21,0.00,2,,146
2013-10-15,87,80,73,73,72,69,94,79,59,29.96,29.91,29.85,10,9,8,18,8,25,0.00,2,,140
2013-10-16,91,81,72,75,73,68,97,78,50,29.99,29.91,29.85,10,9,8,16,8,23,0.00,4,,165
2013-10-17,73,70,66,67,65,63,94,86,78,30.06,29.98,29.94,10,9,7,16,12,,0.00,7,,324
2013-10-18,88,77,66,75,68,64,96,79,55,29.96,29.87,29.78,10,9,8,16,5,21,0.00,4,,224
2013-10-19,77,72,68,74,67,62,96,79,66,30.06,30.00,29.88,9,8,7,23,11,33,0.00,7,,358
2013-10-20,80,71,63,69,62,54,81,71,60,30.05,29.97,29.89,10,9,8,12,8,,0.00,3,Rain,40
2013-10-21,82,76,71,76,73,70,100,89,76,29.94,29.88,29.83,10,8,3,18,7,28,0.27,6,Rain-Thunderstorm,109
2013-10-22,75,72,66,72,68,64,100,90,69,30.09,30.01,29.93,9,7,2,20,10,26,0.32,4,Rain,353
2013-10-23,81,68,57,62,59,54,93,70,50,30.15,30.10,30.06,10,9,8,15,8,22,0.00,0,,10
2013-10-24,82,72,62,63,60,58,90,71,45,30.18,30.14,30.10,10,9,8,10,5,20,0.00,1,,33
2013-10-25,84,74,63,68,65,62,97,71,54,30.23,30.18,30.15,10,9,8,17,6,24,0.00,1,,80
2013-10-26,84,78,73,72,67,64,87,69,53,30.16,30.11,30.06,10,9,8,18,11,24,0.00,1,,120
2013-10-27,84,74,66,71,69,65,96,80,60,30.07,30.02,29.98,10,8,7,15,4,,0.00,1,,126
2013-10-28,86,79,72,74,71,69,91,78,57,30.05,30.00,29.96,10,9,7,18,11,25,0.00,1,,141
2013-10-29,86,80,75,76,73,72,93,80,63,30.07,30.01,29.96,9,8,8,20,14,24,0.00,2,,138
2013-10-30,88,83,78,77,75,73,94,78,61,29.98,29.91,29.83,9,8,7,26,17,36,0.00,6,,158
2013-10-31,89,84,78,78,76,71,97,85,55,29.87,29.83,29.78,9,7,4,20,14,29,0.02,6,Rain,182